Time;durP1;ratioP1;P1;durP2;ratioP2;P2;SDS_P1;SDS_P2;PMS_P1;PMS_P2;Temp;Humidity;BMP_temperature;BMP_pressure;BME280_temperature;BME280_humidity;BME280_pressure;Samples;Min_cycle;Max_cycle;Signal;HPM_P1;HPM_P2
2023/12/15 00:01:53;;;;;;;26.57;10.33;;;;;;;9.35;84.77;96603.47;4899589;29;20202;-72
2023/12/15 00:04:33;;;;;;;22.63;7.90;;;;;;;9.35;81.78;96567.31;4890863;29;20226;-71
2023/12/15 00:07:14;;;;;;;21.47;8.00;;;;;;;9.49;81.47;96598.47;4891476;29;20194;-72
2023/12/15 00:09:55;;;;;;;20.37;7.83;;;;;;;9.65;81.16;96627.00;4891773;29;20597;-72
2023/12/15 00:12:36;;;;;;;22.67;9.07;;;;;;;9.72;80.86;96637.00;4904917;29;20285;-73
2023/12/15 00:15:17;;;;;;;17.40;5.83;;;;;;;9.70;79.34;96631.06;4891374;29;20198;-73
2023/12/15 00:17:58;;;;;;;20.23;5.37;;;;;;;9.77;77.52;96629.81;4891073;29;20222;-73
2023/12/15 00:20:39;;;;;;;15.73;4.67;;;;;;;9.72;76.40;96623.22;4891027;29;20239;-71
2023/12/15 00:23:20;;;;;;;13.40;4.03;;;;;;;9.92;76.06;96643.75;4891764;29;20306;-72
2023/12/15 00:26:01;;;;;;;13.43;4.17;;;;;;;9.98;76.34;96648.63;4904405;29;20210;-72
2023/12/15 00:28:42;;;;;;;13.27;4.17;;;;;;;9.51;76.86;96594.06;4891323;29;20195;-72
2023/12/15 00:31:23;;;;;;;13.77;4.23;;;;;;;10.00;76.26;96653.72;4890424;29;20211;-72
2023/12/15 00:34:04;;;;;;;17.57;5.23;;;;;;;9.95;75.01;96651.38;4890927;29;20222;-72
2023/12/15 00:36:45;;;;;;;15.20;4.43;;;;;;;10.06;74.66;96679.25;4891527;29;20206;-72
2023/12/15 00:39:26;;;;;;;18.23;5.20;;;;;;;10.14;74.26;96670.25;4890488;29;20195;-71
2023/12/15 00:42:07;;;;;;;17.13;5.03;;;;;;;10.27;73.23;96663.56;4891040;29;20698;-71
2023/12/15 00:44:48;;;;;;;14.43;3.80;;;;;;;10.28;73.69;96685.09;4890599;29;20281;-72
2023/12/15 00:47:31;;;;;;;15.10;4.77;;;;;;;10.03;74.54;96675.09;4890684;29;20240;-72
2023/12/15 00:50:12;;;;;;;13.33;4.03;;;;;;;10.03;74.64;96690.63;4891676;29;20752;-72
2023/12/15 00:52:52;;;;;;;15.17;3.90;;;;;;;9.98;73.15;96681.41;4890874;29;20195;-71
2023/12/15 00:55:33;;;;;;;15.43;4.40;;;;;;;9.83;72.12;96657.97;4893661;29;20187;-72
2023/12/15 00:58:14;;;;;;;17.30;4.77;;;;;;;9.99;72.23;96683.09;4896799;29;20310;-71
2023/12/15 01:00:55;;;;;;;16.83;4.93;;;;;;;10.05;71.64;96681.03;4899075;29;20225;-70
2023/12/15 01:03:37;;;;;;;15.87;4.37;;;;;;;9.94;72.33;96685.03;4892462;29;20293;-71
2023/12/15 01:06:18;;;;;;;15.73;5.13;;;;;;;10.04;72.25;96701.78;4905768;29;20199;-73
2023/12/15 01:08:58;;;;;;;31.40;12.63;;;;;;;9.95;71.43;96699.66;4894053;29;20237;-71
2023/12/15 01:11:39;;;;;;;40.87;13.23;;;;;;;9.89;72.03;96700.81;4894298;29;20269;-72
2023/12/15 01:14:20;;;;;;;18.23;4.20;;;;;;;9.95;71.47;96697.94;4894045;29;20199;-72
2023/12/15 01:17:02;;;;;;;14.23;4.27;;;;;;;9.94;71.44;96698.81;4894250;29;20615;-72
2023/12/15 01:19:43;;;;;;;21.07;7.93;;;;;;;10.01;71.04;96714.88;4894080;29;20200;-71
2023/12/15 01:22:24;;;;;;;13.40;4.60;;;;;;;10.05;70.33;96719.84;4894375;29;20186;-72
2023/12/15 01:25:05;;;;;;;15.33;4.50;;;;;;;10.04;70.28;96706.97;4894124;29;20227;-72
2023/12/15 01:27:46;;;;;;;13.50;4.10;;;;;;;9.95;70.11;96702.25;4893565;29;20197;-72
2023/12/15 01:30:27;;;;;;;14.57;4.37;;;;;;;10.09;69.70;96707.59;4893559;29;20199;-73
2023/12/15 01:33:08;;;;;;;12.23;3.47;;;;;;;10.16;68.99;96724.53;4894442;29;20269;-72
2023/12/15 01:35:49;;;;;;;16.90;4.70;;;;;;;10.13;68.63;96727.25;4893172;29;20199;-73
2023/12/15 01:38:30;;;;;;;17.10;4.73;;;;;;;10.00;69.50;96723.53;4894156;29;20193;-73
2023/12/15 01:41:11;;;;;;;15.00;4.17;;;;;;;10.08;69.29;96731.78;4894358;29;20205;-72
2023/12/15 01:43:52;;;;;;;18.17;4.80;;;;;;;10.10;69.08;96740.31;4893106;29;20298;-72
2023/12/15 01:46:33;;;;;;;13.50;3.63;;;;;;;9.91;69.67;96734.34;4893859;29;20211;-72
2023/12/15 01:49:14;;;;;;;15.83;4.00;;;;;;;9.80;69.83;96748.63;4904899;29;20215;-73
2023/12/15 01:51:55;;;;;;;18.37;4.70;;;;;;;9.81;70.08;96739.09;4893369;29;20206;-73
2023/12/15 01:54:35;;;;;;;13.77;3.70;;;;;;;9.62;70.30;96741.72;4893462;29;20208;-72
2023/12/15 01:57:17;;;;;;;14.37;3.97;;;;;;;9.71;70.05;96758.56;4892932;29;20574;-72
2023/12/15 01:59:57;;;;;;;15.87;4.47;;;;;;;9.65;70.16;96740.75;4893461;29;20187;-72
2023/12/15 02:02:39;;;;;;;12.67;3.40;;;;;;;9.62;70.39;96746.91;4892764;29;20650;-72
2023/12/15 02:05:19;;;;;;;17.17;4.53;;;;;;;9.60;70.56;96740.97;4892986;29;20231;-71
2023/12/15 02:08:00;;;;;;;12.37;3.30;;;;;;;9.60;70.88;96720.28;4893392;29;20195;-71
2023/12/15 02:10:41;;;;;;;15.33;4.00;;;;;;;9.27;70.51;96672.78;4892586;29;20230;-72
2023/12/15 02:13:22;;;;;;;17.43;4.63;;;;;;;9.70;70.14;96731.03;4893221;29;20191;-72
2023/12/15 02:16:03;;;;;;;17.20;4.50;;;;;;;9.78;69.80;96728.94;4891828;29;20306;-72
2023/12/15 02:18:45;;;;;;;17.63;4.77;;;;;;;9.70;69.83;96743.97;4892510;29;20207;-71
2023/12/15 02:21:25;;;;;;;15.07;4.03;;;;;;;9.70;69.78;96757.75;4893281;29;20262;-71
2023/12/15 02:24:06;;;;;;;15.07;4.07;;;;;;;9.75;69.49;96763.53;4892507;29;20237;-72
2023/12/15 02:26:47;;;;;;;16.40;4.60;;;;;;;9.65;69.93;96761.44;4893373;29;20203;-72
2023/12/15 02:29:30;;;;;;;13.87;3.87;;;;;;;9.54;70.11;96748.19;4892836;29;20300;-72
2023/12/15 02:32:11;;;;;;;13.10;3.60;;;;;;;9.49;70.69;96747.53;4892440;29;20220;-71
2023/12/15 02:34:52;;;;;;;15.30;4.17;;;;;;;9.56;70.03;96751.53;4892898;29;20890;-72
2023/12/15 02:37:32;;;;;;;13.67;3.83;;;;;;;9.62;69.58;96770.16;4892665;29;20685;-73
2023/12/15 02:40:13;;;;;;;13.87;3.87;;;;;;;9.60;69.80;96797.81;4892397;29;20294;-73
2023/12/15 02:42:54;;;;;;;10.50;3.03;;;;;;;9.48;70.24;96795.81;4892954;29;20231;-72
2023/12/15 02:45:36;;;;;;;12.67;3.60;;;;;;;9.39;70.24;96785.91;4892198;29;20218;-72
2023/12/15 02:48:17;;;;;;;12.77;3.70;;;;;;;9.07;70.63;96763.22;4892238;29;20201;-72
2023/12/15 02:50:59;;;;;;;11.97;3.43;;;;;;;9.29;70.92;96807.06;4892364;29;20590;-72
2023/12/15 02:53:40;;;;;;;15.87;4.57;;;;;;;9.02;71.28;96780.69;4891874;29;20773;-72
2023/12/15 02:56:20;;;;;;;17.30;4.60;;;;;;;9.16;71.27;96813.66;4892529;29;20211;-72
2023/12/15 02:59:03;;;;;;;14.97;4.00;;;;;;;8.67;70.20;96737.50;4892360;29;20203;-72
2023/12/15 03:01:43;;;;;;;14.70;4.03;;;;;;;9.19;71.10;96837.59;4891872;29;20195;-71
2023/12/15 03:04:24;;;;;;;13.47;3.53;;;;;;;9.13;72.08;96840.44;4892228;29;20231;-71
2023/12/15 03:07:05;;;;;;;15.37;4.10;;;;;;;8.86;73.41;96787.44;4891834;29;20270;-71
2023/12/15 03:09:46;;;;;;;18.63;4.80;;;;;;;9.08;72.88;96838.97;4892540;29;20199;-72
2023/12/15 03:12:29;;;;;;;16.70;4.27;;;;;;;9.03;73.35;96858.09;4892309;29;20258;-71
2023/12/15 03:15:10;;;;;;;20.13;5.03;;;;;;;8.96;72.94;96848.09;4892133;29;20205;-71
2023/12/15 03:17:51;;;;;;;18.43;5.03;;;;;;;8.84;73.09;96848.63;4892750;29;20713;-70
2023/12/15 03:20:32;;;;;;;13.33;3.83;;;;;;;8.94;73.77;96844.75;4891498;29;20207;-72
2023/12/15 03:23:12;;;;;;;15.17;4.17;;;;;;;8.94;73.37;96835.22;4891435;29;20237;-72
2023/12/15 03:25:53;;;;;;;11.73;3.20;;;;;;;8.92;73.51;96857.69;4892077;29;20227;-72
2023/12/15 03:28:34;;;;;;;12.40;3.37;;;;;;;8.89;74.40;96877.66;4891968;29;20282;-72
2023/12/15 03:31:15;;;;;;;12.80;3.47;;;;;;;8.71;74.85;96847.44;4892071;29;20206;-72
2023/12/15 03:33:56;;;;;;;13.47;3.63;;;;;;;8.75;75.44;96856.75;4891616;29;20541;-72
2023/12/15 03:36:38;;;;;;;16.10;4.40;;;;;;;8.73;75.86;96861.97;4889793;29;20307;-71
2023/12/15 03:39:19;;;;;;;15.73;4.27;;;;;;;8.75;75.50;96867.91;4889895;29;20199;-71
2023/12/15 03:42:06;;;;;;;12.63;3.57;;;;;;;8.73;75.25;96881.78;4891030;29;20199;-72
2023/12/15 03:44:46;;;;;;;14.57;3.83;;;;;;;8.74;75.47;96866.22;4904881;29;20230;-73
2023/12/15 03:47:31;;;;;;;13.33;3.60;;;;;;;8.80;75.57;96880.59;4891645;29;20210;-73
2023/12/15 03:50:12;;;;;;;12.27;3.47;;;;;;;8.83;75.62;96893.41;4890844;29;20263;-73
2023/12/15 03:52:52;;;;;;;17.87;4.83;;;;;;;8.69;74.60;96883.66;4891893;29;20225;-71
2023/12/15 03:55:33;;;;;;;17.70;4.90;;;;;;;8.70;74.49;96897.38;4891279;29;20566;-73
2023/12/15 03:58:14;;;;;;;14.57;3.63;;;;;;;8.63;74.48;96901.13;4891064;29;20191;-72
2023/12/15 04:00:55;;;;;;;14.20;4.17;;;;;;;8.51;74.96;96884.38;4891525;29;20266;-72
2023/12/15 04:03:36;;;;;;;16.20;4.30;;;;;;;8.49;75.94;96895.69;4890531;29;20247;-72
2023/12/15 04:06:17;;;;;;;15.47;4.30;;;;;;;8.56;75.94;96899.69;4891554;29;20199;-71
2023/12/15 04:08:57;;;;;;;15.47;4.90;;;;;;;8.67;76.20;96902.69;4891107;29;20195;-72
2023/12/15 04:11:38;;;;;;;25.00;8.37;;;;;;;8.65;76.14;96907.06;4891159;29;20203;-71
2023/12/15 04:14:19;;;;;;;29.37;10.47;;;;;;;8.67;74.90;96905.28;4910722;29;20289;-72
2023/12/15 04:17:00;;;;;;;17.60;6.67;;;;;;;8.78;75.20;96903.91;4896936;29;20202;-72
2023/12/15 04:19:41;;;;;;;21.00;7.63;;;;;;;8.81;74.24;96897.78;4890619;29;20387;-73
2023/12/15 04:22:22;;;;;;;19.27;6.97;;;;;;;8.69;74.30;96886.25;4891266;29;20224;-71
2023/12/15 04:25:04;;;;;;;16.57;6.33;;;;;;;8.81;73.80;96906.38;4889166;29;20199;-72
2023/12/15 04:27:46;;;;;;;12.93;4.60;;;;;;;8.82;74.29;96909.81;4890805;29;20262;-72
2023/12/15 04:30:27;;;;;;;15.50;5.03;;;;;;;8.71;74.25;96896.50;4895773;29;20684;-72
2023/12/15 04:33:08;;;;;;;16.23;5.00;;;;;;;8.78;74.73;96915.97;4907045;29;20293;-72
2023/12/15 04:35:49;;;;;;;9.80;3.27;;;;;;;8.80;75.43;96929.66;4908265;29;20200;-73
2023/12/15 04:38:30;;;;;;;13.67;4.87;;;;;;;8.54;75.92;96906.66;4898856;29;20727;-72
2023/12/15 04:40:57;;;;;;;12.40;3.67;;;;;;;8.66;75.50;96930.22;4912506;29;20601;-73
2023/12/15 04:43:25;;;;;;;18.20;5.37;;;;;;;8.55;75.17;96929.00;4896439;29;20351;-71
2023/12/15 04:45:52;;;;;;;14.77;4.50;;;;;;;8.55;75.34;96941.91;4912120;29;20284;-72
2023/12/15 04:48:27;;;;;;;14.17;4.10;;;;;;;8.59;75.06;96952.03;4897509;29;20202;-72
2023/12/15 04:50:54;;;;;;;12.57;3.67;;;;;;;8.53;75.28;96961.75;4911615;29;20198;-72
2023/12/15 04:53:22;;;;;;;14.47;4.30;;;;;;;8.41;75.62;96957.09;4913499;29;20272;-73
2023/12/15 04:55:53;;;;;;;9.97;3.10;;;;;;;8.50;75.60;96961.88;4893268;29;20293;-73
2023/12/15 04:58:23;;;;;;;11.60;3.30;;;;;;;8.19;74.35;96906.28;4911326;29;20200;-73
2023/12/15 05:00:50;;;;;;;14.77;3.73;;;;;;;8.33;74.84;96935.88;4913446;29;20225;-74
2023/12/15 05:03:17;;;;;;;15.20;4.50;;;;;;;8.38;75.24;96963.19;4912447;29;20249;-73
2023/12/15 05:05:47;;;;;;;11.50;3.30;;;;;;;8.41;74.73;96982.88;4913840;29;20198;-73
2023/12/15 05:08:14;;;;;;;15.67;4.50;;;;;;;8.32;74.87;96968.59;4895807;29;20261;-72
2023/12/15 05:10:41;;;;;;;13.03;3.70;;;;;;;8.30;75.49;96952.34;4913221;29;20270;-72
2023/12/15 05:13:09;;;;;;;12.50;3.97;;;;;;;8.00;75.70;96905.28;4911095;29;20697;-71
2023/12/15 05:15:37;;;;;;;13.03;4.27;;;;;;;8.37;76.43;96945.16;4913301;29;20387;-72
2023/12/15 05:18:04;;;;;;;10.90;3.80;;;;;;;8.30;76.96;96969.53;4912896;29;20190;-72
2023/12/15 05:20:36;;;;;;;19.83;6.03;;;;;;;8.21;76.63;96966.38;4912618;29;20280;-70
2023/12/15 05:23:04;;;;;;;14.90;4.53;;;;;;;8.23;77.35;96974.91;4912575;29;20203;-72
2023/12/15 05:25:31;;;;;;;20.07;6.23;;;;;;;8.37;77.17;96976.13;4912265;29;20643;-72
2023/12/15 05:27:58;;;;;;;18.93;5.67;;;;;;;8.42;77.96;96993.13;4912984;29;20286;-72
2023/12/15 05:30:25;;;;;;;18.27;5.83;;;;;;;8.48;77.00;96989.47;4912466;29;20202;-72
2023/12/15 05:32:52;;;;;;;16.47;5.93;;;;;;;8.55;76.75;97003.84;4896338;29;20254;-72
2023/12/15 05:35:20;;;;;;;15.97;5.60;;;;;;;8.60;76.49;97009.66;4912251;29;20644;-73
2023/12/15 05:37:49;;;;;;;20.60;6.73;;;;;;;8.42;76.30;97011.19;4912559;29;20205;-73
2023/12/15 05:40:16;;;;;;;14.43;5.23;;;;;;;8.50;76.73;97018.66;4912110;29;20267;-73
2023/12/15 05:42:44;;;;;;;14.60;4.30;;;;;;;8.38;74.85;97003.63;4912287;29;20258;-73
2023/12/15 05:45:12;;;;;;;12.97;4.43;;;;;;;8.53;74.34;97021.13;4912803;29;20317;-72
2023/12/15 05:47:40;;;;;;;11.87;3.97;;;;;;;8.44;74.05;97009.41;4911939;29;20208;-72
2023/12/15 05:50:08;;;;;;;16.60;5.17;;;;;;;8.52;74.73;97037.50;4912193;29;20262;-74
2023/12/15 05:52:35;;;;;;;13.70;4.60;;;;;;;8.58;74.56;97037.25;4911970;29;20213;-73
2023/12/15 05:55:03;;;;;;;19.23;6.07;;;;;;;8.63;73.89;97041.38;4911941;29;20678;-72
2023/12/15 05:57:30;;;;;;;14.93;4.73;;;;;;;8.57;74.20;97027.84;4911818;29;20190;-73
2023/12/15 05:59:57;;;;;;;15.50;5.00;;;;;;;8.73;74.05;97057.34;4911636;29;20651;-72
2023/12/15 06:02:24;;;;;;;13.83;4.47;;;;;;;8.80;73.28;97072.53;4911871;29;20372;-72
2023/12/15 06:04:51;;;;;;;18.77;5.80;;;;;;;8.71;73.22;97053.97;4911108;29;20727;-74
2023/12/15 06:07:19;;;;;;;18.30;5.33;;;;;;;8.77;72.83;97059.75;4912534;29;20246;-71
2023/12/15 06:09:46;;;;;;;12.13;4.30;;;;;;;8.73;72.24;97062.50;4911745;29;20214;-73
2023/12/15 06:12:14;;;;;;;13.63;4.73;;;;;;;8.80;73.12;97061.34;4911756;29;20298;-72
2023/12/15 06:14:41;;;;;;;17.03;5.53;;;;;;;8.48;72.93;97012.69;4911618;29;20205;-72
2023/12/15 06:17:09;;;;;;;16.73;5.40;;;;;;;8.87;73.10;97070.56;4911520;29;20190;-70
2023/12/15 06:19:40;;;;;;;12.57;4.37;;;;;;;8.80;72.24;97069.94;4911790;29;20298;-71
2023/12/15 06:22:07;;;;;;;17.10;5.10;;;;;;;8.88;72.02;97080.81;4911657;29;20187;-72
2023/12/15 06:24:34;;;;;;;17.63;5.47;;;;;;;8.68;72.57;97060.09;4894897;29;20246;-73
2023/12/15 06:27:03;;;;;;;18.77;5.63;;;;;;;8.77;73.14;97089.88;4911033;29;20202;-71
2023/12/15 06:29:30;;;;;;;18.43;6.43;;;;;;;8.53;72.63;97036.59;4911738;29;20221;-72
2023/12/15 06:31:58;;;;;;;21.00;7.37;;;;;;;8.70;74.00;97067.75;4911558;29;20199;-72
2023/12/15 06:34:25;;;;;;;24.00;8.93;;;;;;;8.85;74.68;97072.34;4911414;29;20236;-73
2023/12/15 06:36:52;;;;;;;14.83;5.63;;;;;;;8.78;76.96;97089.81;4911672;29;20187;-72
2023/12/15 06:39:19;;;;;;;17.77;5.63;;;;;;;8.49;77.92;97074.56;4893665;29;21319;-71
2023/12/15 06:41:46;;;;;;;13.33;4.67;;;;;;;8.60;78.24;97102.56;4911742;29;20203;-71
2023/12/15 06:44:13;;;;;;;13.67;5.10;;;;;;;8.58;78.05;97094.03;4893997;29;20610;-72
2023/12/15 06:46:41;;;;;;;15.87;5.37;;;;;;;8.65;77.94;97106.69;4911412;29;20294;-72
2023/12/15 06:49:08;;;;;;;16.37;5.57;;;;;;;8.74;78.50;97119.22;4911402;29;20202;-72
2023/12/15 06:51:35;;;;;;;13.80;4.73;;;;;;;8.89;77.95;97123.81;4911572;29;20214;-72
2023/12/15 06:54:02;;;;;;;14.87;5.30;;;;;;;8.78;77.54;97120.78;4911488;29;20234;-72
2023/12/15 06:56:30;;;;;;;14.70;5.43;;;;;;;8.85;77.53;97124.84;4920768;29;20267;-72
2023/12/15 06:58:57;;;;;;;18.50;6.50;;;;;;;8.83;78.13;97130.97;4930000;29;20216;-72
2023/12/15 07:01:24;;;;;;;19.57;7.70;;;;;;;8.92;77.46;97139.19;4921700;29;20202;-72
2023/12/15 07:03:51;;;;;;;19.37;6.77;;;;;;;9.00;77.72;97152.66;4911296;29;20275;-74
2023/12/15 07:06:18;;;;;;;18.37;6.33;;;;;;;8.92;78.06;97174.53;4911913;29;20238;-71
2023/12/15 07:08:53;;;;;;;25.57;8.37;;;;;;;8.88;78.43;97171.19;4910906;29;20658;-72
2023/12/15 07:11:21;;;;;;;22.37;8.57;;;;;;;8.91;78.81;97160.75;4909370;29;20205;-73
2023/12/15 07:13:48;;;;;;;29.40;11.60;;;;;;;8.89;77.99;97129.00;4909172;29;20186;-72
2023/12/15 07:16:16;;;;;;;25.47;8.80;;;;;;;8.59;80.37;97152.53;4893866;29;20690;-73
2023/12/15 07:18:43;;;;;;;20.70;6.67;;;;;;;8.49;80.57;97131.34;4877717;29;20195;-71
2023/12/15 07:21:11;;;;;;;17.87;5.37;;;;;;;8.58;80.62;97174.91;4910309;29;20207;-73
2023/12/15 07:23:39;;;;;;;18.67;7.13;;;;;;;8.57;81.56;97191.28;4894564;29;20195;-72
2023/12/15 07:26:07;;;;;;;21.03;8.30;;;;;;;8.51;81.21;97173.41;4913242;29;20198;-73
2023/12/15 07:28:35;;;;;;;22.10;9.00;;;;;;;8.51;82.21;97206.16;4911363;29;20191;-72
2023/12/15 07:31:02;;;;;;;26.80;9.93;;;;;;;8.34;83.44;97226.53;4909985;29;20205;-72
2023/12/15 07:33:30;;;;;;;26.70;10.23;;;;;;;8.40;83.19;97214.25;4909442;29;20630;-72
2023/12/15 07:35:58;;;;;;;20.53;9.03;;;;;;;7.99;85.50;97219.94;4909273;29;20202;-72
2023/12/15 07:38:26;;;;;;;29.47;14.13;;;;;;;8.12;87.05;97237.53;4910668;29;20581;-72
2023/12/15 07:40:56;;;;;;;25.07;10.33;;;;;;;7.95;88.17;97242.41;4909990;29;20206;-73
2023/12/15 07:43:23;;;;;;;17.50;8.13;;;;;;;7.66;89.23;97221.88;4915828;29;20209;-73
2023/12/15 07:45:50;;;;;;;17.93;8.03;;;;;;;7.34;91.31;97217.69;4921442;29;20268;-71
2023/12/15 07:48:17;;;;;;;25.10;9.73;;;;;;;7.44;92.35;97250.91;4912775;29;20214;-73
2023/12/15 07:50:45;;;;;;;22.83;9.57;;;;;;;7.35;93.90;97245.16;4910600;29;20186;-71
2023/12/15 07:53:14;;;;;;;21.77;8.43;;;;;;;7.18;93.22;97231.06;4908084;29;20203;-72
2023/12/15 07:55:41;;;;;;;10.80;4.43;;;;;;;7.17;94.21;97229.41;4910465;29;20721;-73
2023/12/15 07:58:09;;;;;;;16.97;6.83;;;;;;;7.24;93.73;97215.44;4909416;29;20216;-72
2023/12/15 08:00:40;;;;;;;18.83;7.10;;;;;;;7.38;93.13;97254.50;4909948;29;20708;-71
2023/12/15 08:03:07;;;;;;;22.67;9.63;;;;;;;7.45;94.36;97270.63;4908059;29;20728;-72
2023/12/15 08:05:35;;;;;;;21.93;8.73;;;;;;;7.63;93.59;97276.06;4908957;29;20230;-72
2023/12/15 08:08:04;;;;;;;16.00;6.67;;;;;;;7.37;93.66;97253.69;4892611;29;20277;-72
2023/12/15 08:10:34;;;;;;;21.93;8.37;;;;;;;7.29;94.12;97244.47;4909057;29;20218;-72
2023/12/15 08:13:41;;;;;;;10.73;4.43;;;;;;;7.40;93.82;97273.31;4908650;29;20233;-72
2023/12/15 08:17:02;;;;;;;11.63;4.67;;;;;;;7.37;94.61;97278.59;4909135;29;20297;-73
2023/12/15 08:20:23;;;;;;;12.60;4.87;;;;;;;7.50;94.61;97291.94;4908977;29;20700;-72
2023/12/15 08:23:04;;;;;;;16.67;6.53;;;;;;;7.54;94.17;97289.25;4912110;29;20191;-73
2023/12/15 08:25:32;;;;;;;12.57;5.77;;;;;;;7.53;94.27;97272.09;4913945;29;20326;-73
2023/12/15 08:28:02;;;;;;;20.73;8.83;;;;;;;7.81;93.18;97272.91;4909968;29;20198;-72
2023/12/15 08:30:30;;;;;;;25.90;9.73;;;;;;;7.85;92.47;97251.31;4920009;29;20229;-72
2023/12/15 08:33:01;;;;;;;13.13;5.57;;;;;;;8.14;91.44;97283.88;4908494;29;20209;-71
2023/12/15 08:35:28;;;;;;;21.67;8.23;;;;;;;8.15;91.69;97275.28;4892865;29;20242;-72
2023/12/15 08:37:57;;;;;;;18.40;7.93;;;;;;;8.13;91.29;97267.59;4909426;29;20593;-73
2023/12/15 08:40:25;;;;;;;25.77;11.20;;;;;;;8.34;91.33;97291.88;4908985;29;20201;-73
2023/12/15 08:42:53;;;;;;;24.93;10.73;;;;;;;8.18;91.04;97276.00;4908787;29;20585;-72
2023/12/15 08:45:21;;;;;;;31.70;12.07;;;;;;;8.29;90.73;97277.41;4891689;29;20668;-74
2023/12/15 08:47:48;;;;;;;22.70;9.43;;;;;;;8.14;91.29;97295.06;4909845;29;20209;-72
2023/12/15 08:50:16;;;;;;;27.50;10.90;;;;;;;7.78;91.04;97239.50;4909183;29;20239;-74
2023/12/15 08:52:45;;;;;;;29.13;13.33;;;;;;;7.96;92.24;97277.59;4907919;29;20717;-73
2023/12/15 08:55:13;;;;;;;30.43;13.80;;;;;;;8.17;92.05;97307.88;4891953;29;20221;-73
2023/12/15 08:57:40;;;;;;;27.67;12.57;;;;;;;8.09;91.97;97304.69;4909237;29;20195;-74
2023/12/15 09:00:08;;;;;;;21.17;10.40;;;;;;;7.94;91.78;97281.09;4892410;29;20258;-73
2023/12/15 09:02:37;;;;;;;17.57;7.57;;;;;;;7.65;92.08;97315.53;4909065;29;20257;-76
2023/12/15 09:05:06;;;;;;;24.67;9.70;;;;;;;7.64;93.08;97319.00;4910186;29;20226;-73
2023/12/15 09:07:52;;;;;;;20.70;7.73;;;;;;;7.48;93.98;97304.84;4909145;29;20199;-73
2023/12/15 09:10:21;;;;;;;26.60;9.00;;;;;;;7.74;92.89;97314.41;4921141;29;20206;-73
2023/12/15 09:12:50;;;;;;;12.93;5.37;;;;;;;7.81;91.35;97319.31;4927592;29;20202;-75
2023/12/15 09:15:19;;;;;;;26.10;10.07;;;;;;;7.76;90.93;97328.09;4909127;29;20302;-73
2023/12/15 09:17:46;;;;;;;22.00;9.37;;;;;;;7.54;93.38;97327.03;4893047;29;20198;-75
2023/12/15 09:20:13;;;;;;;21.87;9.80;;;;;;;7.66;92.92;97327.53;4909076;29;20243;-73
2023/12/15 09:22:42;;;;;;;24.73;10.03;;;;;;;7.68;92.80;97310.28;4923555;29;20209;-73
2023/12/15 09:25:09;;;;;;;29.60;14.00;;;;;;;7.93;93.46;97336.97;4907278;29;20316;-73
2023/12/15 09:27:37;;;;;;;27.43;13.20;;;;;;;7.99;92.44;97341.97;4911928;29;20206;-73
2023/12/15 09:30:44;;;;;;;22.50;10.43;;;;;;;7.85;92.92;97349.28;4880049;29;20205;-73
2023/12/15 09:34:05;;;;;;;20.43;9.40;;;;;;;7.97;92.81;97374.72;4910498;29;20326;-73
2023/12/15 09:37:25;;;;;;;27.37;11.97;;;;;;;8.01;92.78;97371.16;4911416;29;20191;-73
2023/12/15 09:40:46;;;;;;;23.83;10.13;;;;;;;7.57;93.25;97363.00;4894719;29;20723;-73
2023/12/15 09:44:07;;;;;;;29.23;14.43;;;;;;;7.84;94.98;97380.25;4911875;29;20202;-75
2023/12/15 09:47:28;;;;;;;25.97;11.63;;;;;;;7.31;96.50;97386.94;4910266;29;20200;-73
2023/12/15 09:50:49;;;;;;;27.47;11.73;;;;;;;7.29;96.90;97360.41;4894007;29;20199;-72
2023/12/15 09:54:10;;;;;;;27.83;14.07;;;;;;;7.29;97.51;97337.22;4925442;29;20191;-72
2023/12/15 09:57:31;;;;;;;25.73;12.80;;;;;;;7.58;97.36;97364.72;4922104;29;20210;-73
2023/12/15 10:00:52;;;;;;;23.87;11.57;;;;;;;7.37;95.74;97355.88;4911365;29;20250;-73
2023/12/15 10:04:13;;;;;;;23.40;10.80;;;;;;;7.46;96.71;97368.47;4910494;29;20242;-72
2023/12/15 10:07:33;;;;;;;30.03;14.87;;;;;;;7.65;95.28;97361.91;4910980;29;20194;-73
2023/12/15 10:10:57;;;;;;;24.70;11.80;;;;;;;7.83;94.64;97373.44;4910737;29;20972;-72
2023/12/15 10:14:23;;;;;;;21.13;9.07;;;;;;;8.12;94.37;97363.06;4911731;29;20198;-72
2023/12/15 10:17:46;;;;;;;18.00;8.03;;;;;;;8.08;93.57;97382.94;4910741;29;20198;-73
2023/12/15 10:20:56;;;;;;;28.37;10.17;;;;;;;8.02;92.65;97390.03;4910861;29;20706;-73
2023/12/15 10:23:29;;;;;;;23.00;9.33;;;;;;;8.18;92.51;97396.44;4894585;29;20726;-72
2023/12/15 10:26:03;;;;;;;21.73;7.83;;;;;;;7.90;92.55;97362.03;4911492;29;20241;-72
2023/12/15 10:28:36;;;;;;;26.33;10.37;;;;;;;7.81;92.52;97354.59;4911323;29;20210;-73
2023/12/15 10:31:03;;;;;;;22.43;8.67;;;;;;;7.78;91.19;97347.78;4911758;29;20246;-73
2023/12/15 10:33:37;;;;;;;25.33;9.00;;;;;;;7.66;92.61;97367.91;4909659;29;20207;-72
2023/12/15 10:36:06;;;;;;;18.23;7.23;;;;;;;7.61;93.04;97380.06;4924966;29;20204;-72
2023/12/15 10:38:34;;;;;;;24.47;8.80;;;;;;;7.98;92.82;97397.00;4926796;29;20553;-72
2023/12/15 10:41:03;;;;;;;22.97;8.67;;;;;;;7.82;92.02;97380.31;4922151;29;20204;-73
2023/12/15 10:43:34;;;;;;;21.57;8.03;;;;;;;7.53;92.38;97369.16;4911459;29;20280;-73
2023/12/15 10:46:03;;;;;;;24.87;8.27;;;;;;;7.51;92.05;97388.97;4894443;29;20266;-73
2023/12/15 10:48:32;;;;;;;22.27;7.57;;;;;;;7.45;92.01;97364.22;4911460;29;20280;-72
2023/12/15 10:51:01;;;;;;;18.43;6.80;;;;;;;7.61;92.57;97385.22;4896999;29;20206;-73
2023/12/15 10:53:32;;;;;;;22.13;8.87;;;;;;;7.78;92.30;97365.81;4911481;29;20212;-71
2023/12/15 10:56:00;;;;;;;20.23;7.73;;;;;;;7.64;91.91;97357.66;4894074;29;20205;-72
2023/12/15 10:58:30;;;;;;;20.97;8.50;;;;;;;7.72;91.09;97375.47;4893787;29;20225;-71
2023/12/15 11:01:01;;;;;;;29.80;11.07;;;;;;;7.70;91.75;97395.28;4910858;29;20214;-73
2023/12/15 11:03:31;;;;;;;29.93;11.77;;;;;;;7.60;91.92;97397.28;4910581;29;20261;-71
2023/12/15 11:05:59;;;;;;;20.83;7.63;;;;;;;7.69;90.71;97407.31;4911487;29;20280;-72
2023/12/15 11:08:27;;;;;;;19.50;7.43;;;;;;;7.55;90.98;97386.25;4910531;29;20272;-73
2023/12/15 11:10:55;;;;;;;22.63;8.53;;;;;;;7.55;91.51;97396.56;4911652;29;20581;-72
2023/12/15 11:13:58;;;;;;;20.60;7.93;;;;;;;7.54;91.95;97407.78;4893619;29;20352;-72
2023/12/15 11:16:29;;;;;;;20.20;8.33;;;;;;;7.48;92.66;97414.84;4910606;29;20204;-73
2023/12/15 11:18:57;;;;;;;18.47;6.80;;;;;;;7.63;91.99;97404.94;4922042;29;20737;-72
2023/12/15 11:21:26;;;;;;;18.73;6.60;;;;;;;7.22;92.04;97369.16;4920376;29;20202;-72
2023/12/15 11:23:58;;;;;;;21.17;7.33;;;;;;;7.36;92.03;97375.63;4894101;29;20205;-72
2023/12/15 11:26:31;;;;;;;15.93;6.83;;;;;;;7.40;92.27;97387.53;4910368;29;20600;-73
2023/12/15 11:29:05;;;;;;;21.27;8.43;;;;;;;7.73;92.39;97406.34;4910330;29;20199;-71
2023/12/15 11:31:34;;;;;;;23.53;10.03;;;;;;;7.79;91.10;97406.16;4909993;29;20201;-73
2023/12/15 11:34:04;;;;;;;28.43;10.67;;;;;;;7.75;91.10;97406.31;4909899;29;20205;-72
2023/12/15 11:36:44;;;;;;;21.57;9.50;;;;;;;7.60;90.69;97389.56;4910683;29;20694;-74
2023/12/15 11:39:15;;;;;;;20.03;8.17;;;;;;;7.72;91.57;97412.41;4909758;29;20315;-72
2023/12/15 11:41:47;;;;;;;16.97;6.50;;;;;;;7.63;90.89;97427.28;4910264;29;20213;-72
2023/12/15 11:44:15;;;;;;;17.87;6.47;;;;;;;7.75;91.68;97450.97;4893213;29;20198;-72
2023/12/15 11:46:42;;;;;;;15.23;5.90;;;;;;;7.84;91.23;97445.56;4909814;29;20238;-74
2023/12/15 11:49:22;;;;;;;16.43;6.40;;;;;;;7.76;90.70;97455.25;4924466;29;20283;-73
2023/12/15 11:52:11;;;;;;;18.37;7.23;;;;;;;7.60;91.48;97443.69;4909336;29;20202;-73
2023/12/15 11:54:41;;;;;;;16.87;6.77;;;;;;;7.35;92.61;97424.63;4892556;29;20304;-72
2023/12/15 11:57:08;;;;;;;18.70;9.33;;;;;;;7.42;91.76;97446.75;4908410;29;20676;-73
2023/12/15 11:59:44;;;;;;;25.13;10.80;;;;;;;7.46;92.34;97453.50;4910306;29;20199;-70
2023/12/15 12:02:17;;;;;;;17.70;7.27;;;;;;;6.61;92.54;97322.75;4923436;29;20265;-72
2023/12/15 12:04:47;;;;;;;18.20;8.13;;;;;;;7.32;93.66;97450.44;4914412;29;20234;-73
2023/12/15 12:07:15;;;;;;;23.23;9.77;;;;;;;7.11;92.65;97462.16;4878053;29;20273;-74
2023/12/15 12:09:44;;;;;;;29.93;17.00;;;;;;;7.08;92.47;97435.66;4909672;29;20301;-73
2023/12/15 12:12:14;;;;;;;32.10;16.80;;;;;;;7.45;92.10;97464.72;4909639;29;20218;-74
2023/12/15 12:14:42;;;;;;;21.93;9.47;;;;;;;7.15;91.65;97395.97;4909609;29;20221;-72
2023/12/15 12:17:10;;;;;;;13.60;6.10;;;;;;;7.64;91.28;97441.84;4892418;29;20205;-72